sensor_id;sensor_type;location;lat;lon;timestamp;P1;durP1;ratioP1;P2;durP2;ratioP2
10005;SDS011;5042;42.626;23.382;2023-06-22T00:02:02;9.13;;;7.80;;
10005;SDS011;5042;42.626;23.382;2023-06-22T00:04:28;10.60;;;8.38;;
10005;SDS011;5042;42.626;23.382;2023-06-22T00:06:55;8.82;;;6.72;;
10005;SDS011;5042;42.626;23.382;2023-06-22T00:09:22;7.00;;;6.28;;
10005;SDS011;5042;42.626;23.382;2023-06-22T00:11:49;7.72;;;5.53;;
10005;SDS011;5042;42.626;23.382;2023-06-22T00:14:15;6.22;;;5.63;;
10005;SDS011;5042;42.626;23.382;2023-06-22T00:16:43;7.40;;;6.20;;
10005;SDS011;5042;42.626;23.382;2023-06-22T00:19:13;7.22;;;5.68;;
10005;SDS011;5042;42.626;23.382;2023-06-22T00:21:40;6.38;;;5.70;;
10005;SDS011;5042;42.626;23.382;2023-06-22T00:24:07;8.15;;;6.40;;
10005;SDS011;5042;42.626;23.382;2023-06-22T00:26:34;7.05;;;6.35;;
10005;SDS011;5042;42.626;23.382;2023-06-22T00:29:01;8.38;;;7.00;;
10005;SDS011;5042;42.626;23.382;2023-06-22T00:31:28;7.53;;;6.72;;
10005;SDS011;5042;42.626;23.382;2023-06-22T00:33:56;7.80;;;6.53;;
10005;SDS011;5042;42.626;23.382;2023-06-22T00:36:22;6.25;;;5.63;;
10005;SDS011;5042;42.626;23.382;2023-06-22T00:38:50;6.13;;;4.85;;
10005;SDS011;5042;42.626;23.382;2023-06-22T00:41:17;6.20;;;5.60;;
10005;SDS011;5042;42.626;23.382;2023-06-22T00:43:44;7.60;;;5.95;;
10005;SDS011;5042;42.626;23.382;2023-06-22T00:46:11;7.22;;;6.13;;
10005;SDS011;5042;42.626;23.382;2023-06-22T00:48:39;6.47;;;5.78;;
10005;SDS011;5042;42.626;23.382;2023-06-22T00:51:10;8.07;;;6.70;;
10005;SDS011;5042;42.626;23.382;2023-06-22T00:53:37;7.63;;;6.60;;
10005;SDS011;5042;42.626;23.382;2023-06-22T00:56:06;8.20;;;7.40;;
10005;SDS011;5042;42.626;23.382;2023-06-22T00:58:34;9.25;;;7.45;;
10005;SDS011;5042;42.626;23.382;2023-06-22T01:01:01;7.95;;;7.15;;
10005;SDS011;5042;42.626;23.382;2023-06-22T01:03:28;8.68;;;7.68;;
10005;SDS011;5042;42.626;23.382;2023-06-22T01:05:56;9.07;;;8.18;;
10005;SDS011;5042;42.626;23.382;2023-06-22T01:08:36;7.70;;;6.75;;
10005;SDS011;5042;42.626;23.382;2023-06-22T01:11:09;9.27;;;7.20;;
10005;SDS011;5042;42.626;23.382;2023-06-22T01:13:44;11.25;;;7.32;;
10005;SDS011;5042;42.626;23.382;2023-06-22T01:16:14;9.18;;;7.90;;
10005;SDS011;5042;42.626;23.382;2023-06-22T01:18:47;8.90;;;7.30;;
10005;SDS011;5042;42.626;23.382;2023-06-22T01:21:17;9.13;;;8.02;;
10005;SDS011;5042;42.626;23.382;2023-06-22T01:23:56;9.60;;;8.30;;
10005;SDS011;5042;42.626;23.382;2023-06-22T01:26:36;10.07;;;7.90;;
10005;SDS011;5042;42.626;23.382;2023-06-22T01:29:08;9.05;;;7.93;;
10005;SDS011;5042;42.626;23.382;2023-06-22T01:31:38;8.52;;;7.63;;
10005;SDS011;5042;42.626;23.382;2023-06-22T01:34:07;9.20;;;8.18;;
10005;SDS011;5042;42.626;23.382;2023-06-22T01:36:35;8.38;;;7.53;;
10005;SDS011;5042;42.626;23.382;2023-06-22T01:39:04;9.73;;;8.73;;
10005;SDS011;5042;42.626;23.382;2023-06-22T01:41:35;10.85;;;9.02;;
10005;SDS011;5042;42.626;23.382;2023-06-22T01:44:04;10.15;;;8.25;;
10005;SDS011;5042;42.626;23.382;2023-06-22T01:46:33;9.45;;;8.48;;
10005;SDS011;5042;42.626;23.382;2023-06-22T01:49:01;9.40;;;8.27;;
10005;SDS011;5042;42.626;23.382;2023-06-22T01:51:28;11.43;;;8.57;;
10005;SDS011;5042;42.626;23.382;2023-06-22T01:53:55;9.50;;;8.25;;
10005;SDS011;5042;42.626;23.382;2023-06-22T01:56:22;9.05;;;7.90;;
10005;SDS011;5042;42.626;23.382;2023-06-22T01:58:51;10.00;;;8.93;;
10005;SDS011;5042;42.626;23.382;2023-06-22T02:01:26;8.88;;;7.85;;
10005;SDS011;5042;42.626;23.382;2023-06-22T02:04:03;11.18;;;7.70;;
10005;SDS011;5042;42.626;23.382;2023-06-22T02:06:36;7.85;;;7.00;;
10005;SDS011;5042;42.626;23.382;2023-06-22T02:09:06;7.60;;;6.68;;
10005;SDS011;5042;42.626;23.382;2023-06-22T02:11:36;8.57;;;6.88;;
10005;SDS011;5042;42.626;23.382;2023-06-22T02:14:03;7.55;;;5.97;;
10005;SDS011;5042;42.626;23.382;2023-06-22T02:16:32;9.13;;;7.25;;
10005;SDS011;5042;42.626;23.382;2023-06-22T02:19:02;7.38;;;6.35;;
10005;SDS011;5042;42.626;23.382;2023-06-22T02:21:30;6.97;;;6.13;;
10005;SDS011;5042;42.626;23.382;2023-06-22T02:23:57;6.72;;;6.10;;
10005;SDS011;5042;42.626;23.382;2023-06-22T02:26:24;8.27;;;6.45;;
10005;SDS011;5042;42.626;23.382;2023-06-22T02:28:51;8.63;;;7.07;;
10005;SDS011;5042;42.626;23.382;2023-06-22T02:31:18;7.90;;;6.95;;
10005;SDS011;5042;42.626;23.382;2023-06-22T02:33:45;9.75;;;7.55;;
10005;SDS011;5042;42.626;23.382;2023-06-22T02:36:14;8.68;;;7.78;;
10005;SDS011;5042;42.626;23.382;2023-06-22T02:38:41;8.43;;;7.53;;
10005;SDS011;5042;42.626;23.382;2023-06-22T02:41:13;8.40;;;7.35;;
10005;SDS011;5042;42.626;23.382;2023-06-22T02:43:43;9.45;;;7.90;;
10005;SDS011;5042;42.626;23.382;2023-06-22T02:46:10;9.80;;;8.00;;
10005;SDS011;5042;42.626;23.382;2023-06-22T02:48:38;10.38;;;7.90;;
10005;SDS011;5042;42.626;23.382;2023-06-22T02:51:05;8.18;;;7.13;;
10005;SDS011;5042;42.626;23.382;2023-06-22T02:53:33;7.95;;;7.13;;
10005;SDS011;5042;42.626;23.382;2023-06-22T02:56:00;7.30;;;6.57;;
10005;SDS011;5042;42.626;23.382;2023-06-22T02:58:28;7.22;;;6.43;;
10005;SDS011;5042;42.626;23.382;2023-06-22T03:00:55;8.50;;;6.70;;
10005;SDS011;5042;42.626;23.382;2023-06-22T03:03:21;7.30;;;6.60;;
10005;SDS011;5042;42.626;23.382;2023-06-22T03:05:51;8.23;;;6.47;;
10005;SDS011;5042;42.626;23.382;2023-06-22T03:08:18;7.47;;;6.50;;
10005;SDS011;5042;42.626;23.382;2023-06-22T03:10:46;9.32;;;6.53;;
10005;SDS011;5042;42.626;23.382;2023-06-22T03:13:13;7.03;;;6.22;;
10005;SDS011;5042;42.626;23.382;2023-06-22T03:15:39;6.68;;;6.07;;
10005;SDS011;5042;42.626;23.382;2023-06-22T03:18:06;9.95;;;6.68;;
10005;SDS011;5042;42.626;23.382;2023-06-22T03:20:33;7.38;;;6.57;;
10005;SDS011;5042;42.626;23.382;2023-06-22T03:23:00;7.88;;;7.00;;
10005;SDS011;5042;42.626;23.382;2023-06-22T03:25:26;8.90;;;7.15;;
10005;SDS011;5042;42.626;23.382;2023-06-22T03:27:55;9.07;;;7.60;;
10005;SDS011;5042;42.626;23.382;2023-06-22T03:30:21;9.00;;;7.97;;
10005;SDS011;5042;42.626;23.382;2023-06-22T03:32:48;10.63;;;8.43;;
10005;SDS011;5042;42.626;23.382;2023-06-22T03:35:15;8.23;;;7.38;;
10005;SDS011;5042;42.626;23.382;2023-06-22T03:37:42;9.00;;;7.68;;
10005;SDS011;5042;42.626;23.382;2023-06-22T03:40:09;8.68;;;7.72;;
10005;SDS011;5042;42.626;23.382;2023-06-22T03:42:36;9.10;;;8.05;;
10005;SDS011;5042;42.626;23.382;2023-06-22T03:45:05;9.25;;;7.40;;
10005;SDS011;5042;42.626;23.382;2023-06-22T03:47:32;9.20;;;7.75;;
10005;SDS011;5042;42.626;23.382;2023-06-22T03:49:59;9.15;;;8.02;;
10005;SDS011;5042;42.626;23.382;2023-06-22T03:52:28;9.05;;;8.13;;
10005;SDS011;5042;42.626;23.382;2023-06-22T03:54:55;11.60;;;8.68;;
10005;SDS011;5042;42.626;23.382;2023-06-22T03:57:22;10.98;;;8.48;;
10005;SDS011;5042;42.626;23.382;2023-06-22T03:59:49;10.13;;;8.18;;
10005;SDS011;5042;42.626;23.382;2023-06-22T04:02:17;11.30;;;8.57;;
10005;SDS011;5042;42.626;23.382;2023-06-22T04:04:44;10.10;;;8.27;;
10005;SDS011;5042;42.626;23.382;2023-06-22T04:07:11;8.63;;;7.72;;
10005;SDS011;5042;42.626;23.382;2023-06-22T04:09:37;12.30;;;9.25;;
10005;SDS011;5042;42.626;23.382;2023-06-22T04:12:04;10.55;;;9.07;;
10005;SDS011;5042;42.626;23.382;2023-06-22T04:14:34;9.75;;;8.50;;
10005;SDS011;5042;42.626;23.382;2023-06-22T04:17:00;9.32;;;7.90;;
10005;SDS011;5042;42.626;23.382;2023-06-22T04:19:29;10.70;;;8.10;;
10005;SDS011;5042;42.626;23.382;2023-06-22T04:21:56;10.70;;;8.73;;
10005;SDS011;5042;42.626;23.382;2023-06-22T04:24:22;9.65;;;8.65;;
10005;SDS011;5042;42.626;23.382;2023-06-22T04:26:49;8.30;;;7.40;;
10005;SDS011;5042;42.626;23.382;2023-06-22T04:29:19;13.05;;;8.57;;
10005;SDS011;5042;42.626;23.382;2023-06-22T04:31:55;10.73;;;7.90;;
10005;SDS011;5042;42.626;23.382;2023-06-22T04:34:23;9.13;;;7.65;;
10005;SDS011;5042;42.626;23.382;2023-06-22T04:36:52;10.60;;;7.70;;
10005;SDS011;5042;42.626;23.382;2023-06-22T04:39:19;8.90;;;7.97;;
10005;SDS011;5042;42.626;23.382;2023-06-22T04:41:47;10.27;;;8.18;;
10005;SDS011;5042;42.626;23.382;2023-06-22T04:44:14;8.75;;;7.85;;
10005;SDS011;5042;42.626;23.382;2023-06-22T04:46:48;9.05;;;7.47;;
10005;SDS011;5042;42.626;23.382;2023-06-22T04:49:19;8.80;;;7.43;;
10005;SDS011;5042;42.626;23.382;2023-06-22T04:51:47;7.90;;;7.10;;
10005;SDS011;5042;42.626;23.382;2023-06-22T04:54:18;9.43;;;7.68;;
10005;SDS011;5042;42.626;23.382;2023-06-22T04:56:44;9.93;;;6.97;;
10005;SDS011;5042;42.626;23.382;2023-06-22T04:59:11;8.00;;;7.20;;
10005;SDS011;5042;42.626;23.382;2023-06-22T05:01:39;10.93;;;7.57;;
10005;SDS011;5042;42.626;23.382;2023-06-22T05:04:06;8.73;;;7.22;;
10005;SDS011;5042;42.626;23.382;2023-06-22T05:06:32;7.85;;;6.80;;
10005;SDS011;5042;42.626;23.382;2023-06-22T05:08:59;7.82;;;7.00;;
10005;SDS011;5042;42.626;23.382;2023-06-22T05:11:28;9.18;;;7.18;;
10005;SDS011;5042;42.626;23.382;2023-06-22T05:13:55;11.25;;;7.40;;
10005;SDS011;5042;42.626;23.382;2023-06-22T05:16:22;7.43;;;6.65;;
10005;SDS011;5042;42.626;23.382;2023-06-22T05:18:51;10.75;;;7.57;;
10005;SDS011;5042;42.626;23.382;2023-06-22T05:21:21;7.95;;;6.45;;
10005;SDS011;5042;42.626;23.382;2023-06-22T05:23:49;7.80;;;7.00;;
10005;SDS011;5042;42.626;23.382;2023-06-22T05:26:16;10.65;;;6.70;;
10005;SDS011;5042;42.626;23.382;2023-06-22T05:28:44;10.27;;;6.95;;
10005;SDS011;5042;42.626;23.382;2023-06-22T05:31:12;10.88;;;7.68;;
10005;SDS011;5042;42.626;23.382;2023-06-22T05:33:39;9.27;;;7.38;;
10005;SDS011;5042;42.626;23.382;2023-06-22T05:36:06;9.90;;;7.20;;
10005;SDS011;5042;42.626;23.382;2023-06-22T05:38:32;8.02;;;7.18;;
10005;SDS011;5042;42.626;23.382;2023-06-22T05:40:59;9.05;;;7.40;;
10005;SDS011;5042;42.626;23.382;2023-06-22T05:43:26;10.85;;;7.35;;
10005;SDS011;5042;42.626;23.382;2023-06-22T05:45:54;9.43;;;7.60;;
10005;SDS011;5042;42.626;23.382;2023-06-22T05:48:21;9.48;;;7.88;;
10005;SDS011;5042;42.626;23.382;2023-06-22T05:50:48;11.77;;;7.80;;
10005;SDS011;5042;42.626;23.382;2023-06-22T05:53:15;10.00;;;8.88;;
10005;SDS011;5042;42.626;23.382;2023-06-22T05:55:42;9.70;;;8.73;;
10005;SDS011;5042;42.626;23.382;2023-06-22T05:58:08;9.20;;;7.45;;
10005;SDS011;5042;42.626;23.382;2023-06-22T06:00:35;8.90;;;6.97;;
10005;SDS011;5042;42.626;23.382;2023-06-22T06:03:03;7.75;;;6.97;;
10005;SDS011;5042;42.626;23.382;2023-06-22T06:05:32;8.52;;;7.43;;
10005;SDS011;5042;42.626;23.382;2023-06-22T06:08:00;8.30;;;7.13;;
10005;SDS011;5042;42.626;23.382;2023-06-22T06:10:27;8.38;;;7.05;;
10005;SDS011;5042;42.626;23.382;2023-06-22T06:12:54;9.77;;;7.13;;
10005;SDS011;5042;42.626;23.382;2023-06-22T06:15:21;10.77;;;7.35;;
10005;SDS011;5042;42.626;23.382;2023-06-22T06:17:48;10.75;;;8.05;;
10005;SDS011;5042;42.626;23.382;2023-06-22T06:20:17;7.85;;;6.75;;
10005;SDS011;5042;42.626;23.382;2023-06-22T06:22:45;9.32;;;6.55;;
10005;SDS011;5042;42.626;23.382;2023-06-22T06:25:12;8.88;;;7.32;;
10005;SDS011;5042;42.626;23.382;2023-06-22T06:27:41;11.02;;;8.23;;
10005;SDS011;5042;42.626;23.382;2023-06-22T06:30:08;11.30;;;7.75;;
10005;SDS011;5042;42.626;23.382;2023-06-22T06:32:36;11.20;;;7.85;;
10005;SDS011;5042;42.626;23.382;2023-06-22T06:35:03;8.77;;;7.13;;
10005;SDS011;5042;42.626;23.382;2023-06-22T06:37:32;11.27;;;7.57;;
10005;SDS011;5042;42.626;23.382;2023-06-22T06:40:01;10.18;;;8.40;;
10005;SDS011;5042;42.626;23.382;2023-06-22T06:42:30;9.40;;;7.53;;
10005;SDS011;5042;42.626;23.382;2023-06-22T06:44:57;7.72;;;6.80;;
10005;SDS011;5042;42.626;23.382;2023-06-22T06:47:23;9.20;;;7.35;;
10005;SDS011;5042;42.626;23.382;2023-06-22T06:49:50;10.10;;;7.30;;
10005;SDS011;5042;42.626;23.382;2023-06-22T06:52:17;12.32;;;7.38;;
10005;SDS011;5042;42.626;23.382;2023-06-22T06:54:46;8.40;;;6.88;;
10005;SDS011;5042;42.626;23.382;2023-06-22T06:57:13;9.98;;;6.60;;
10005;SDS011;5042;42.626;23.382;2023-06-22T06:59:40;8.25;;;6.10;;
10005;SDS011;5042;42.626;23.382;2023-06-22T07:02:07;11.02;;;7.13;;
10005;SDS011;5042;42.626;23.382;2023-06-22T07:04:34;7.40;;;6.70;;
10005;SDS011;5042;42.626;23.382;2023-06-22T07:07:01;7.97;;;7.07;;
10005;SDS011;5042;42.626;23.382;2023-06-22T07:09:28;8.35;;;6.32;;
10005;SDS011;5042;42.626;23.382;2023-06-22T07:11:56;10.85;;;6.78;;
10005;SDS011;5042;42.626;23.382;2023-06-22T07:14:23;7.90;;;6.50;;
10005;SDS011;5042;42.626;23.382;2023-06-22T07:16:50;9.68;;;7.63;;
10005;SDS011;5042;42.626;23.382;2023-06-22T07:19:22;11.02;;;8.45;;
10005;SDS011;5042;42.626;23.382;2023-06-22T07:21:51;11.00;;;7.45;;
10005;SDS011;5042;42.626;23.382;2023-06-22T07:24:18;8.27;;;7.18;;
10005;SDS011;5042;42.626;23.382;2023-06-22T07:26:46;8.43;;;7.53;;
10005;SDS011;5042;42.626;23.382;2023-06-22T07:29:14;8.63;;;7.20;;
10005;SDS011;5042;42.626;23.382;2023-06-22T07:31:41;9.02;;;6.90;;
10005;SDS011;5042;42.626;23.382;2023-06-22T07:34:08;7.97;;;6.70;;
10005;SDS011;5042;42.626;23.382;2023-06-22T07:36:34;7.53;;;6.57;;
10005;SDS011;5042;42.626;23.382;2023-06-22T07:39:01;7.70;;;6.43;;
10005;SDS011;5042;42.626;23.382;2023-06-22T07:41:29;8.00;;;6.63;;
10005;SDS011;5042;42.626;23.382;2023-06-22T07:43:56;9.18;;;6.60;;
10005;SDS011;5042;42.626;23.382;2023-06-22T07:46:24;9.95;;;7.03;;
10005;SDS011;5042;42.626;23.382;2023-06-22T07:48:51;7.30;;;6.57;;
10005;SDS011;5042;42.626;23.382;2023-06-22T07:51:18;9.82;;;7.35;;
10005;SDS011;5042;42.626;23.382;2023-06-22T07:53:44;9.82;;;6.82;;
10005;SDS011;5042;42.626;23.382;2023-06-22T07:56:11;8.18;;;6.50;;
10005;SDS011;5042;42.626;23.382;2023-06-22T07:58:38;9.38;;;7.22;;
10005;SDS011;5042;42.626;23.382;2023-06-22T08:01:05;7.68;;;6.82;;
10005;SDS011;5042;42.626;23.382;2023-06-22T08:03:33;8.68;;;7.57;;
10005;SDS011;5042;42.626;23.382;2023-06-22T08:06:00;10.75;;;6.60;;
10005;SDS011;5042;42.626;23.382;2023-06-22T08:08:27;8.40;;;7.03;;
10005;SDS011;5042;42.626;23.382;2023-06-22T08:10:54;6.95;;;6.25;;
10005;SDS011;5042;42.626;23.382;2023-06-22T08:13:20;8.32;;;7.03;;
10005;SDS011;5042;42.626;23.382;2023-06-22T08:15:47;7.38;;;6.57;;
10005;SDS011;5042;42.626;23.382;2023-06-22T08:18:14;7.60;;;6.20;;
10005;SDS011;5042;42.626;23.382;2023-06-22T08:20:42;9.85;;;6.93;;
10005;SDS011;5042;42.626;23.382;2023-06-22T08:23:09;8.23;;;6.55;;
10005;SDS011;5042;42.626;23.382;2023-06-22T08:25:36;10.00;;;6.50;;
10005;SDS011;5042;42.626;23.382;2023-06-22T08:28:03;8.20;;;6.93;;
10005;SDS011;5042;42.626;23.382;2023-06-22T08:30:30;8.23;;;6.55;;
10005;SDS011;5042;42.626;23.382;2023-06-22T08:32:57;8.02;;;7.15;;
10005;SDS011;5042;42.626;23.382;2023-06-22T08:35:24;10.52;;;6.10;;
10005;SDS011;5042;42.626;23.382;2023-06-22T08:37:52;7.75;;;6.82;;
10005;SDS011;5042;42.626;23.382;2023-06-22T08:40:19;9.98;;;7.03;;
10005;SDS011;5042;42.626;23.382;2023-06-22T08:42:46;8.38;;;7.05;;
10005;SDS011;5042;42.626;23.382;2023-06-22T08:45:14;7.60;;;6.78;;
10005;SDS011;5042;42.626;23.382;2023-06-22T08:47:41;9.00;;;7.05;;
10005;SDS011;5042;42.626;23.382;2023-06-22T08:50:08;10.63;;;7.20;;
10005;SDS011;5042;42.626;23.382;2023-06-22T08:52:36;7.72;;;6.93;;
10005;SDS011;5042;42.626;23.382;2023-06-22T08:55:04;9.48;;;6.95;;
10005;SDS011;5042;42.626;23.382;2023-06-22T08:57:32;9.88;;;7.85;;
10005;SDS011;5042;42.626;23.382;2023-06-22T08:59:59;7.72;;;6.93;;
10005;SDS011;5042;42.626;23.382;2023-06-22T09:02:26;8.90;;;6.85;;
10005;SDS011;5042;42.626;23.382;2023-06-22T09:04:56;9.13;;;7.38;;
10005;SDS011;5042;42.626;23.382;2023-06-22T09:07:23;8.32;;;7.30;;
10005;SDS011;5042;42.626;23.382;2023-06-22T09:09:51;9.00;;;7.18;;
10005;SDS011;5042;42.626;23.382;2023-06-22T09:12:19;8.07;;;7.07;;
10005;SDS011;5042;42.626;23.382;2023-06-22T09:14:50;9.75;;;6.90;;
10005;SDS011;5042;42.626;23.382;2023-06-22T09:17:17;9.55;;;7.35;;
10005;SDS011;5042;42.626;23.382;2023-06-22T09:19:44;10.52;;;6.93;;
10005;SDS011;5042;42.626;23.382;2023-06-22T09:22:12;8.75;;;6.72;;
10005;SDS011;5042;42.626;23.382;2023-06-22T09:24:39;6.90;;;6.20;;
10005;SDS011;5042;42.626;23.382;2023-06-22T09:27:06;6.50;;;5.90;;
10005;SDS011;5042;42.626;23.382;2023-06-22T09:29:34;10.45;;;6.72;;
10005;SDS011;5042;42.626;23.382;2023-06-22T09:32:01;7.82;;;6.35;;
10005;SDS011;5042;42.626;23.382;2023-06-22T09:34:28;7.57;;;6.55;;
10005;SDS011;5042;42.626;23.382;2023-06-22T09:36:56;7.55;;;6.80;;
10005;SDS011;5042;42.626;23.382;2023-06-22T09:39:25;7.88;;;6.70;;
10005;SDS011;5042;42.626;23.382;2023-06-22T09:41:52;7.50;;;6.72;;
10005;SDS011;5042;42.626;23.382;2023-06-22T09:44:19;7.95;;;7.15;;
10005;SDS011;5042;42.626;23.382;2023-06-22T09:46:47;7.85;;;6.28;;
10005;SDS011;5042;42.626;23.382;2023-06-22T09:49:13;11.15;;;7.22;;
10005;SDS011;5042;42.626;23.382;2023-06-22T09:51:40;9.57;;;6.53;;
10005;SDS011;5042;42.626;23.382;2023-06-22T09:54:07;6.85;;;6.13;;
10005;SDS011;5042;42.626;23.382;2023-06-22T09:56:34;8.38;;;5.32;;
10005;SDS011;5042;42.626;23.382;2023-06-22T09:59:02;6.40;;;5.75;;
10005;SDS011;5042;42.626;23.382;2023-06-22T10:01:29;5.72;;;5.20;;
10005;SDS011;5042;42.626;23.382;2023-06-22T10:03:57;6.25;;;5.68;;
10005;SDS011;5042;42.626;23.382;2023-06-22T10:06:24;6.22;;;5.45;;
10005;SDS011;5042;42.626;23.382;2023-06-22T10:08:51;6.00;;;5.47;;
10005;SDS011;5042;42.626;23.382;2023-06-22T10:11:18;6.13;;;5.60;;
10005;SDS011;5042;42.626;23.382;2023-06-22T10:13:44;6.03;;;5.47;;
10005;SDS011;5042;42.626;23.382;2023-06-22T10:16:11;5.75;;;5.25;;
10005;SDS011;5042;42.626;23.382;2023-06-22T10:18:38;6.05;;;5.45;;
10005;SDS011;5042;42.626;23.382;2023-06-22T10:21:06;6.18;;;5.57;;
10005;SDS011;5042;42.626;23.382;2023-06-22T10:23:33;6.63;;;5.68;;
10005;SDS011;5042;42.626;23.382;2023-06-22T10:26:00;6.32;;;5.72;;
10005;SDS011;5042;42.626;23.382;2023-06-22T10:28:26;6.43;;;5.72;;
10005;SDS011;5042;42.626;23.382;2023-06-22T10:30:53;6.05;;;5.55;;
10005;SDS011;5042;42.626;23.382;2023-06-22T10:33:20;5.85;;;5.30;;
10005;SDS011;5042;42.626;23.382;2023-06-22T10:35:47;6.68;;;5.97;;
10005;SDS011;5042;42.626;23.382;2023-06-22T10:38:15;7.30;;;6.35;;
10005;SDS011;5042;42.626;23.382;2023-06-22T10:40:42;6.43;;;5.82;;
10005;SDS011;5042;42.626;23.382;2023-06-22T10:43:08;6.57;;;5.78;;
10005;SDS011;5042;42.626;23.382;2023-06-22T10:45:35;7.78;;;6.05;;
10005;SDS011;5042;42.626;23.382;2023-06-22T10:48:02;7.00;;;6.15;;
10005;SDS011;5042;42.626;23.382;2023-06-22T10:50:29;7.07;;;6.28;;
10005;SDS011;5042;42.626;23.382;2023-06-22T10:52:56;6.90;;;6.18;;
10005;SDS011;5042;42.626;23.382;2023-06-22T10:55:24;6.78;;;6.10;;
10005;SDS011;5042;42.626;23.382;2023-06-22T10:57:51;6.38;;;5.78;;
10005;SDS011;5042;42.626;23.382;2023-06-22T11:00:17;6.32;;;5.70;;
10005;SDS011;5042;42.626;23.382;2023-06-22T11:02:44;7.07;;;6.20;;
10005;SDS011;5042;42.626;23.382;2023-06-22T11:05:11;7.45;;;6.75;;
10005;SDS011;5042;42.626;23.382;2023-06-22T11:07:41;7.32;;;6.00;;
10005;SDS011;5042;42.626;23.382;2023-06-22T11:10:08;6.22;;;5.63;;
10005;SDS011;5042;42.626;23.382;2023-06-22T11:12:37;9.82;;;5.95;;
10005;SDS011;5042;42.626;23.382;2023-06-22T11:15:04;7.00;;;6.15;;
10005;SDS011;5042;42.626;23.382;2023-06-22T11:17:31;6.68;;;5.97;;
10005;SDS011;5042;42.626;23.382;2023-06-22T11:19:58;6.93;;;6.10;;
10005;SDS011;5042;42.626;23.382;2023-06-22T11:22:25;6.55;;;5.88;;
10005;SDS011;5042;42.626;23.382;2023-06-22T11:24:53;8.57;;;6.55;;
10005;SDS011;5042;42.626;23.382;2023-06-22T11:27:19;7.00;;;6.30;;
10005;SDS011;5042;42.626;23.382;2023-06-22T11:29:48;7.60;;;6.20;;
10005;SDS011;5042;42.626;23.382;2023-06-22T11:32:14;7.10;;;6.25;;
10005;SDS011;5042;42.626;23.382;2023-06-22T11:34:41;6.63;;;6.03;;
10005;SDS011;5042;42.626;23.382;2023-06-22T11:37:08;6.28;;;5.38;;
10005;SDS011;5042;42.626;23.382;2023-06-22T11:39:35;7.38;;;6.05;;
10005;SDS011;5042;42.626;23.382;2023-06-22T11:42:02;8.70;;;5.97;;
10005;SDS011;5042;42.626;23.382;2023-06-22T11:44:28;6.47;;;5.88;;
10005;SDS011;5042;42.626;23.382;2023-06-22T11:46:57;6.07;;;5.47;;
10005;SDS011;5042;42.626;23.382;2023-06-22T11:49:26;6.40;;;5.53;;
10005;SDS011;5042;42.626;23.382;2023-06-22T11:51:52;5.80;;;5.30;;
10005;SDS011;5042;42.626;23.382;2023-06-22T11:54:19;6.55;;;5.82;;
10005;SDS011;5042;42.626;23.382;2023-06-22T11:56:46;5.30;;;4.80;;
10005;SDS011;5042;42.626;23.382;2023-06-22T11:59:13;6.18;;;5.60;;
10005;SDS011;5042;42.626;23.382;2023-06-22T12:01:39;6.80;;;5.95;;
10005;SDS011;5042;42.626;23.382;2023-06-22T12:04:07;7.28;;;5.70;;
10005;SDS011;5042;42.626;23.382;2023-06-22T12:06:37;6.78;;;5.65;;
10005;SDS011;5042;42.626;23.382;2023-06-22T12:09:07;5.90;;;5.30;;
10005;SDS011;5042;42.626;23.382;2023-06-22T12:11:34;7.03;;;6.40;;
10005;SDS011;5042;42.626;23.382;2023-06-22T12:14:00;8.98;;;6.53;;
10005;SDS011;5042;42.626;23.382;2023-06-22T12:16:27;6.82;;;6.13;;
10005;SDS011;5042;42.626;23.382;2023-06-22T12:18:54;5.68;;;5.15;;
10005;SDS011;5042;42.626;23.382;2023-06-22T12:21:22;5.93;;;5.32;;
10005;SDS011;5042;42.626;23.382;2023-06-22T12:23:49;7.90;;;6.20;;
10005;SDS011;5042;42.626;23.382;2023-06-22T12:26:16;6.95;;;6.20;;
10005;SDS011;5042;42.626;23.382;2023-06-22T12:28:43;9.45;;;5.90;;
10005;SDS011;5042;42.626;23.382;2023-06-22T12:31:10;7.25;;;6.55;;
10005;SDS011;5042;42.626;23.382;2023-06-22T12:33:36;7.65;;;6.65;;
10005;SDS011;5042;42.626;23.382;2023-06-22T12:36:03;9.95;;;7.07;;
10005;SDS011;5042;42.626;23.382;2023-06-22T12:38:32;8.10;;;6.40;;
10005;SDS011;5042;42.626;23.382;2023-06-22T12:40:59;7.68;;;6.75;;
10005;SDS011;5042;42.626;23.382;2023-06-22T12:43:26;12.23;;;6.10;;
10005;SDS011;5042;42.626;23.382;2023-06-22T12:45:52;7.15;;;5.82;;
10005;SDS011;5042;42.626;23.382;2023-06-22T12:48:19;13.50;;;6.82;;
10005;SDS011;5042;42.626;23.382;2023-06-22T12:50:46;13.95;;;8.73;;
10005;SDS011;5042;42.626;23.382;2023-06-22T12:53:13;11.82;;;8.75;;
10005;SDS011;5042;42.626;23.382;2023-06-22T12:55:41;11.10;;;9.10;;
10005;SDS011;5042;42.626;23.382;2023-06-22T12:58:08;10.32;;;8.70;;
10005;SDS011;5042;42.626;23.382;2023-06-22T13:00:35;10.40;;;8.88;;
10005;SDS011;5042;42.626;23.382;2023-06-22T13:03:01;9.48;;;8.48;;
10005;SDS011;5042;42.626;23.382;2023-06-22T13:05:28;11.45;;;8.82;;
10005;SDS011;5042;42.626;23.382;2023-06-22T13:07:55;12.85;;;8.57;;
10005;SDS011;5042;42.626;23.382;2023-06-22T13:10:22;12.73;;;9.13;;
10005;SDS011;5042;42.626;23.382;2023-06-22T13:12:50;13.63;;;10.38;;
10005;SDS011;5042;42.626;23.382;2023-06-22T13:15:20;13.02;;;9.77;;
10005;SDS011;5042;42.626;23.382;2023-06-22T13:17:46;11.18;;;9.85;;
10005;SDS011;5042;42.626;23.382;2023-06-22T13:20:13;12.15;;;9.20;;
10005;SDS011;5042;42.626;23.382;2023-06-22T13:22:40;9.82;;;8.63;;
10005;SDS011;5042;42.626;23.382;2023-06-22T13:25:09;9.32;;;8.00;;
10005;SDS011;5042;42.626;23.382;2023-06-22T13:27:37;9.25;;;8.00;;
10005;SDS011;5042;42.626;23.382;2023-06-22T13:30:06;9.52;;;7.85;;
10005;SDS011;5042;42.626;23.382;2023-06-22T13:32:34;9.07;;;8.13;;
10005;SDS011;5042;42.626;23.382;2023-06-22T13:35:00;10.57;;;8.02;;
10005;SDS011;5042;42.626;23.382;2023-06-22T13:37:27;8.52;;;7.60;;
10005;SDS011;5042;42.626;23.382;2023-06-22T13:39:54;8.50;;;7.45;;
10005;SDS011;5042;42.626;23.382;2023-06-22T13:42:21;8.95;;;7.30;;
10005;SDS011;5042;42.626;23.382;2023-06-22T13:44:48;9.25;;;8.23;;
10005;SDS011;5042;42.626;23.382;2023-06-22T13:47:16;10.02;;;7.70;;
10005;SDS011;5042;42.626;23.382;2023-06-22T13:49:43;9.75;;;8.15;;
10005;SDS011;5042;42.626;23.382;2023-06-22T13:52:09;9.55;;;8.27;;
10005;SDS011;5042;42.626;23.382;2023-06-22T13:54:37;9.98;;;7.78;;
10005;SDS011;5042;42.626;23.382;2023-06-22T13:57:05;11.23;;;7.78;;
10005;SDS011;5042;42.626;23.382;2023-06-22T13:59:32;11.05;;;7.40;;
10005;SDS011;5042;42.626;23.382;2023-06-22T14:01:59;10.75;;;7.75;;
10005;SDS011;5042;42.626;23.382;2023-06-22T14:04:27;8.73;;;7.25;;
10005;SDS011;5042;42.626;23.382;2023-06-22T14:06:54;7.47;;;6.75;;
10005;SDS011;5042;42.626;23.382;2023-06-22T14:09:21;9.07;;;7.65;;
10005;SDS011;5042;42.626;23.382;2023-06-22T14:11:48;9.10;;;7.43;;
10005;SDS011;5042;42.626;23.382;2023-06-22T14:14:14;10.10;;;8.20;;
10005;SDS011;5042;42.626;23.382;2023-06-22T14:16:41;11.45;;;8.45;;
10005;SDS011;5042;42.626;23.382;2023-06-22T14:19:08;11.88;;;8.60;;
10005;SDS011;5042;42.626;23.382;2023-06-22T14:21:36;11.35;;;9.18;;
10005;SDS011;5042;42.626;23.382;2023-06-22T14:24:03;12.32;;;8.20;;
10005;SDS011;5042;42.626;23.382;2023-06-22T14:26:30;11.95;;;8.27;;
10005;SDS011;5042;42.626;23.382;2023-06-22T14:28:57;11.75;;;8.55;;
10005;SDS011;5042;42.626;23.382;2023-06-22T14:31:23;11.35;;;8.60;;
10005;SDS011;5042;42.626;23.382;2023-06-22T14:33:50;10.05;;;8.95;;
10005;SDS011;5042;42.626;23.382;2023-06-22T14:36:17;10.75;;;8.95;;
10005;SDS011;5042;42.626;23.382;2023-06-22T14:38:45;11.48;;;9.25;;
10005;SDS011;5042;42.626;23.382;2023-06-22T14:41:13;10.65;;;9.05;;
10005;SDS011;5042;42.626;23.382;2023-06-22T14:43:45;10.30;;;8.88;;
10005;SDS011;5042;42.626;23.382;2023-06-22T14:46:13;9.82;;;8.68;;
10005;SDS011;5042;42.626;23.382;2023-06-22T14:48:40;10.13;;;8.63;;